Skip Navigation LinksHome page > Tools > METAR decoder Skip Navigation Links

METAR decoder

Settings

METAR

Chicago O'Hare Intl, Chicago

For information only: do not use for flight planning or navigation.
Latest weather
Observation time Tuesday, May 24, 2016 11:51 PM CDT
Local time Wednesday, May 25, 2016 12:12 AM CDT
Flight conditions Visual Meteorological Conditions
Winds
Wind direction South (180°)
Wind speed 8 mph
Visibility 10 mi.
Sky condition
Ceiling 25,000 ft. broken clouds
Cloud layer broken clouds 25,000 ft.
Temperature 72°F
Dewpoint 58°F
Altimeter 29.96 in.Hg
Derived measurements
Relative humidity 61%
Density altitude 1690 ft.
Sea-level pressure 29.95 in.Hg
Remarks
Automated weather observing station with precipitation discriminator.
METAR KORD 250451Z 18007KT 10SM BKN250 22/14 A2996 RMK AO2 SLP141 T02220144

InnerDrive.Weather 4.0.5722.1 Release CLR 4.0.30319.34209
Copyright ©2015 Inner Drive Technology. All rights reserved. Portions Copyright ©1986-2015 David Braverman.

Find weather

Site navigation


Skip Navigation Links

Place info

Page info

PayPal - The safer, easier way to pay online!

Return home.

Copyright ©2016 Inner Drive Technology. Purveyors of fine, hand-crafted computer software. Page printed 2016-05-25T05:12:48 UTC.